Time;durP1;ratioP1;P1;durP2;ratioP2;P2;SDS_P1;SDS_P2;PMS_P1;PMS_P2;Temp;Humidity;BMP_temperature;BMP_pressure;BME280_temperature;BME280_humidity;BME280_pressure;Samples;Min_cycle;Max_cycle;Signal;HPM_P1;HPM_P2
2023/03/26 14:38:23;;;;;;;2.75;1.15;;;;;;;9.55;100.00;97022.97;3150046;23;1435589;-90
2023/03/26 14:39:51;;;;;;;2.10;1.02;;;;;;;9.48;100.00;97017.16;3212934;23;20448;-89
2023/03/26 14:41:23;;;;;;;1.50;0.70;;;;;;;9.56;100.00;97015.03;3213050;23;20016;-89
2023/03/26 14:42:55;;;;;;;3.60;1.30;;;;;;;9.50;100.00;97020.56;3213260;23;20043;-87
2023/03/26 14:44:35;;;;;;;2.55;1.02;;;;;;;9.47;100.00;97018.94;3218197;22;20110;-87
2023/03/26 14:46:06;;;;;;;2.97;1.30;;;;;;;9.38;100.00;97013.28;3228993;22;20020;-86
2023/03/26 14:47:23;;;;;;;4.20;1.10;;;;;;;9.35;100.00;97011.66;3227858;22;20016;-86
2023/03/26 14:48:46;;;;;;;1.25;0.90;;;;;;;9.53;100.00;97014.34;3226306;22;20034;-87
2023/03/26 14:52:50;;;;;;;5.13;1.38;;;;;;;9.45;100.00;97018.16;3225315;22;20112;-86
2023/03/26 16:48:45;;;;;;;8.05;2.25;;;;;;;9.40;100.00;96912.19;3217825;23;20703;-86
2023/03/26 16:50:20;;;;;;;9.40;6.00;;;;;;;9.29;100.00;96910.94;3223526;23;20035;-86
2023/03/26 16:51:38;;;;;;;6.45;3.35;;;;;;;9.36;100.00;96915.88;3222127;23;20505;-85
2023/03/26 16:53:16;;;;;;;6.40;3.13;;;;;;;9.37;100.00;96910.59;3223380;23;20048;-87
2023/03/26 16:54:50;;;;;;;5.05;2.85;;;;;;;9.47;100.00;96906.59;3222931;23;20467;-86
2023/03/26 16:56:23;;;;;;;6.15;2.70;;;;;;;9.51;100.00;96912.53;3222930;23;20495;-84
2023/03/26 16:57:52;;;;;;;6.68;2.90;;;;;;;9.48;100.00;96915.28;3223299;23;20044;-85
2023/03/26 16:59:51;;;;;;;7.80;3.20;;;;;;;9.69;100.00;96916.00;3224255;23;20459;-86
2023/03/26 17:01:20;;;;;;;8.23;2.92;;;;;;;9.72;100.00;96912.41;3223603;23;20110;-85
2023/03/26 17:02:46;;;;;;;5.68;2.67;;;;;;;9.64;100.00;96912.78;3224601;23;20024;-86
2023/03/26 17:04:11;;;;;;;5.10;3.28;;;;;;;9.74;100.00;96914.00;3223571;23;20024;-86
2023/03/26 17:05:57;;;;;;;7.28;3.80;;;;;;;9.59;100.00;96917.38;3223702;23;20071;-86
2023/03/26 17:07:23;;;;;;;11.45;5.57;;;;;;;9.59;100.00;96920.84;3223709;23;20110;-86
2023/03/26 17:09:00;;;;;;;13.55;6.03;;;;;;;9.61;100.00;96923.38;3223533;23;20048;-89
2023/03/26 17:10:30;;;;;;;12.65;6.07;;;;;;;9.69;100.00;96923.00;3223604;23;20035;-86
2023/03/26 17:11:52;;;;;;;11.63;5.43;;;;;;;9.74;100.00;96927.06;3223896;23;20521;-86
2023/03/26 17:13:22;;;;;;;10.73;5.65;;;;;;;9.71;100.00;96924.63;3224429;23;20455;-86
2023/03/26 17:14:48;;;;;;;9.88;5.40;;;;;;;9.50;100.00;96925.66;3223754;23;20668;-86
2023/03/26 17:16:28;;;;;;;10.52;5.05;;;;;;;9.57;100.00;96929.66;3223587;23;20031;-86
2023/03/26 17:18:11;;;;;;;7.80;4.32;;;;;;;9.59;100.00;96933.91;3207582;23;20025;-86
2023/03/26 17:19:38;;;;;;;7.57;3.90;;;;;;;9.63;100.00;96931.97;3207768;23;20048;-86
2023/03/26 17:21:29;;;;;;;9.27;3.90;;;;;;;9.42;100.00;96921.66;3207919;23;20124;-86
2023/03/26 17:23:05;;;;;;;7.30;3.92;;;;;;;9.12;100.00;96924.78;3182181;23;20087;-86
2023/03/26 17:24:48;;;;;;;8.55;3.70;;;;;;;8.97;100.00;96922.91;3207089;23;20032;-86
2023/03/26 17:26:25;;;;;;;8.07;4.28;;;;;;;9.16;100.00;96921.13;3208882;23;20032;-86
2023/03/26 17:27:59;;;;;;;8.70;3.80;;;;;;;9.15;100.00;96927.25;3207362;23;20640;-86
2023/03/26 17:29:28;;;;;;;7.68;3.80;;;;;;;9.18;100.00;96921.88;3206163;23;20031;-86
2023/03/26 17:30:45;;;;;;;10.90;4.50;;;;;;;9.06;100.00;96924.22;3207165;23;20442;-85
2023/03/26 17:32:10;;;;;;;8.98;3.92;;;;;;;8.80;100.00;96926.28;3207652;23;20067;-85
2023/03/26 17:33:25;;;;;;;11.63;4.90;;;;;;;8.76;100.00;96929.03;3208561;23;20031;-85
2023/03/26 17:34:54;;;;;;;17.42;6.25;;;;;;;8.81;100.00;96930.56;3207402;23;20021;-85
2023/03/26 17:36:09;;;;;;;26.00;10.15;;;;;;;8.99;100.00;96928.88;3207697;23;20052;-85
2023/03/26 17:37:37;;;;;;;24.40;9.43;;;;;;;8.95;100.00;96925.56;3207482;23;20032;-85
2023/03/26 17:38:59;;;;;;;25.55;10.15;;;;;;;8.91;100.00;96924.03;3208927;23;20182;-86
2023/03/26 17:40:49;;;;;;;18.27;8.55;;;;;;;8.56;100.00;96927.31;3208120;23;20048;-86
2023/03/26 17:42:25;;;;;;;23.00;8.88;;;;;;;8.47;100.00;96925.06;3208827;23;20107;-85
2023/03/26 17:43:49;;;;;;;18.85;7.45;;;;;;;8.17;100.00;96921.13;3208567;23;20052;-85
2023/03/26 17:45:16;;;;;;;15.13;6.63;;;;;;;7.80;100.00;96922.66;3207878;23;20029;-85
2023/03/26 17:46:40;;;;;;;16.35;7.07;;;;;;;7.70;100.00;96911.78;3207747;23;20021;-85
2023/03/26 17:48:01;;;;;;;19.05;8.00;;;;;;;7.55;100.00;96918.47;3207077;23;20519;-85
2023/03/26 17:49:25;;;;;;;22.58;9.68;;;;;;;7.48;100.00;96922.22;3207924;23;20025;-85
2023/03/26 17:50:52;;;;;;;21.67;9.55;;;;;;;7.22;100.00;96924.09;3207905;23;20460;-85
2023/03/26 17:52:24;;;;;;;23.23;9.80;;;;;;;7.53;100.00;96925.50;3208009;23;20025;-85
2023/03/26 17:53:40;;;;;;;17.83;8.57;;;;;;;7.62;100.00;96926.88;3207964;23;20490;-85
2023/03/26 17:54:56;;;;;;;21.67;8.77;;;;;;;7.41;100.00;96924.22;3190760;23;20047;-85
2023/03/26 17:56:15;;;;;;;18.45;7.20;;;;;;;7.11;100.00;96931.47;3197658;23;20024;-85
2023/03/26 17:57:40;;;;;;;14.98;6.97;;;;;;;7.18;100.00;96927.72;3207346;23;20047;-85
2023/03/26 17:59:02;;;;;;;17.00;6.50;;;;;;;7.21;100.00;96928.44;3207580;23;20032;-85
2023/03/26 18:00:27;;;;;;;16.13;6.95;;;;;;;6.99;100.00;96932.81;3207318;23;20730;-84
2023/03/26 18:01:46;;;;;;;19.15;6.32;;;;;;;6.82;100.00;96936.03;3207441;23;20024;-84
2023/03/26 18:03:17;;;;;;;10.45;5.03;;;;;;;6.71;100.00;96937.28;3207254;23;20120;-85
2023/03/26 18:04:37;;;;;;;10.48;4.95;;;;;;;6.76;100.00;96930.13;3207878;23;20033;-84
2023/03/26 18:06:03;;;;;;;8.88;3.70;;;;;;;6.93;100.00;96928.69;3207247;23;20032;-84
2023/03/26 18:07:49;;;;;;;10.50;3.78;;;;;;;7.39;100.00;96933.84;3207368;23;20024;-85
2023/03/26 18:09:43;;;;;;;8.18;3.92;;;;;;;7.18;100.00;96941.59;3207395;23;20024;-84
2023/03/26 18:11:22;;;;;;;9.25;4.38;;;;;;;6.79;100.00;96942.19;3181095;23;20114;-84
2023/03/26 18:12:46;;;;;;;11.13;4.45;;;;;;;6.65;100.00;96942.72;3207761;23;20103;-84
2023/03/26 18:14:26;;;;;;;10.35;4.47;;;;;;;6.60;100.00;96936.81;3208190;23;20028;-84
2023/03/26 18:15:52;;;;;;;11.55;4.65;;;;;;;7.05;100.00;96935.16;3208501;23;20016;-83
2023/03/26 18:17:08;;;;;;;11.40;5.20;;;;;;;7.19;100.00;96930.28;3207456;23;20527;-84
2023/03/26 18:18:36;;;;;;;9.50;4.68;;;;;;;7.15;100.00;96938.25;3207845;23;20031;-84
2023/03/26 18:20:06;;;;;;;7.97;3.97;;;;;;;7.07;100.00;96941.16;3207761;23;20631;-84
2023/03/26 18:21:38;;;;;;;8.07;4.03;;;;;;;7.05;100.00;96929.94;3207728;23;20299;-84
2023/03/26 18:22:54;;;;;;;8.30;3.90;;;;;;;7.02;100.00;96935.28;3207695;23;20024;-84
2023/03/26 18:24:15;;;;;;;7.28;3.72;;;;;;;6.87;100.00;96939.28;3207997;23;20067;-85
2023/03/26 18:25:32;;;;;;;6.40;3.95;;;;;;;6.74;100.00;96946.72;3207574;23;20025;-84
2023/03/26 18:26:55;;;;;;;7.47;3.47;;;;;;;6.45;100.00;96940.81;3207894;23;20051;-84
2023/03/26 18:28:13;;;;;;;7.65;3.60;;;;;;;6.32;100.00;96946.44;3208041;23;20351;-84
2023/03/26 18:29:34;;;;;;;8.75;3.50;;;;;;;6.26;100.00;96941.44;3207716;23;20024;-84
2023/03/26 18:30:50;;;;;;;6.57;3.13;;;;;;;6.03;100.00;96937.91;3207811;23;20031;-84
2023/03/26 18:32:07;;;;;;;7.25;3.20;;;;;;;6.02;100.00;96937.94;3208067;23;20032;-84
2023/03/26 18:33:24;;;;;;;6.90;3.22;;;;;;;6.02;100.00;96946.63;3208006;23;20814;-84
2023/03/26 18:34:48;;;;;;;7.13;3.33;;;;;;;5.96;100.00;96946.78;3191210;23;20021;-85
2023/03/26 18:36:05;;;;;;;7.95;3.13;;;;;;;5.90;100.00;96941.78;3199777;23;20115;-84
2023/03/26 18:37:22;;;;;;;8.13;3.25;;;;;;;5.94;100.00;96943.38;3207908;23;20032;-84
2023/03/26 18:38:38;;;;;;;6.05;3.13;;;;;;;6.02;100.00;96940.56;3207889;23;20507;-84
2023/03/26 18:40:19;;;;;;;5.85;3.22;;;;;;;5.99;100.00;96938.88;3207630;23;20039;-83
2023/03/26 18:41:38;;;;;;;7.82;3.28;;;;;;;5.94;100.00;96933.00;3207571;23;20473;-84
2023/03/26 18:42:58;;;;;;;6.60;3.30;;;;;;;5.87;100.00;96928.91;3207662;23;20047;-84
2023/03/26 18:44:16;;;;;;;7.93;3.20;;;;;;;5.84;100.00;96927.25;3207505;23;20025;-83
2023/03/26 18:45:35;;;;;;;6.22;3.50;;;;;;;5.77;100.00;96924.03;3207799;23;20094;-83
2023/03/26 18:46:55;;;;;;;8.70;3.88;;;;;;;5.87;100.00;96921.97;3207711;23;20228;-84
2023/03/26 18:48:17;;;;;;;7.72;3.40;;;;;;;5.83;100.00;96919.50;3191451;23;20045;-84
2023/03/26 18:49:35;;;;;;;10.70;3.88;;;;;;;5.84;100.00;96910.81;3191505;23;20196;-84
2023/03/26 18:51:03;;;;;;;8.43;3.63;;;;;;;6.07;100.00;96912.66;3192076;23;20379;-84
2023/03/26 18:52:20;;;;;;;7.10;3.70;;;;;;;5.94;100.00;96917.41;3191942;23;20388;-84
2023/03/26 18:53:47;;;;;;;7.30;3.38;;;;;;;5.93;100.00;96910.50;3192157;23;20025;-83
2023/03/26 18:55:05;;;;;;;5.55;3.22;;;;;;;5.77;100.00;96904.97;3192840;23;20104;-84
2023/03/26 18:56:39;;;;;;;7.70;4.07;;;;;;;5.72;100.00;96910.31;3192993;23;20124;-84
2023/03/26 18:57:56;;;;;;;7.00;3.60;;;;;;;5.72;100.00;96901.69;3192869;23;20025;-84
2023/03/26 18:59:26;;;;;;;7.93;4.10;;;;;;;5.77;100.00;96904.97;3191682;23;20476;-83
2023/03/26 19:00:43;;;;;;;13.60;4.75;;;;;;;6.08;100.00;96899.63;3192638;23;20104;-82
2023/03/26 19:02:02;;;;;;;12.15;4.40;;;;;;;6.15;100.00;96900.25;3193088;23;20329;-83
2023/03/26 19:03:22;;;;;;;15.38;5.10;;;;;;;6.17;100.00;96889.81;3192383;23;20457;-83
2023/03/26 19:04:42;;;;;;;10.85;5.15;;;;;;;5.83;100.00;96888.34;3192883;23;20021;-83
2023/03/26 19:05:58;;;;;;;11.65;4.75;;;;;;;6.10;100.00;96886.59;3193079;23;20099;-83
2023/03/26 19:07:25;;;;;;;10.65;5.05;;;;;;;6.10;100.00;96888.31;3192853;23;20071;-83
2023/03/26 19:08:43;;;;;;;10.52;5.07;;;;;;;5.86;100.00;96894.28;3193284;23;20098;-83
2023/03/26 19:10:00;;;;;;;12.27;4.80;;;;;;;5.72;100.00;96892.13;3192722;23;20021;-83
2023/03/26 19:11:16;;;;;;;11.73;5.07;;;;;;;5.92;100.00;96894.06;3192493;23;20025;-83
2023/03/26 19:12:34;;;;;;;12.13;5.47;;;;;;;5.91;100.00;96886.34;3192750;23;20472;-83
2023/03/26 19:14:02;;;;;;;12.63;5.63;;;;;;;5.76;100.00;96890.28;3192966;23;20021;-83
2023/03/26 19:15:18;;;;;;;13.18;4.82;;;;;;;5.49;100.00;96893.78;3192532;23;20456;-82
2023/03/26 19:16:36;;;;;;;12.45;5.72;;;;;;;5.78;100.00;96888.50;3192847;23;20059;-83
2023/03/26 19:17:57;;;;;;;7.95;4.15;;;;;;;5.49;100.00;96892.91;3192199;23;20397;-82
2023/03/26 19:19:21;;;;;;;10.23;4.15;;;;;;;5.53;100.00;96897.13;3192659;23;20768;-82
2023/03/26 19:20:44;;;;;;;12.02;4.35;;;;;;;5.77;100.00;96897.19;3192457;23;20120;-82
2023/03/26 19:22:00;;;;;;;;;;;;;;;5.92;100.00;96888.88;3193163;23;20025;-83
2023/03/26 19:23:22;;;;;;;8.15;4.65;;;;;;;5.75;100.00;96891.19;3193620;23;19926;-83
2023/03/26 19:24:39;;;;;;;10.13;3.67;;;;;;;5.91;100.00;96897.56;3192558;23;20550;-82
2023/03/26 19:25:56;;;;;;;9.00;3.97;;;;;;;5.90;100.00;96900.22;3192518;23;20021;-82
2023/03/26 19:27:12;;;;;;;7.25;3.55;;;;;;;5.80;100.00;96897.94;3192191;23;20588;-83
2023/03/26 19:28:32;;;;;;;6.30;3.30;;;;;;;5.40;100.00;96896.66;3192198;23;20135;-82
2023/03/26 19:29:48;;;;;;;9.23;3.92;;;;;;;5.18;100.00;96897.34;3191885;23;20024;-84
2023/03/26 19:31:20;;;;;;;11.73;4.35;;;;;;;4.94;100.00;96886.81;3192414;23;20411;-83
2023/03/26 19:32:36;;;;;;;;;;;;;;;5.38;100.00;96893.25;3193634;23;20044;-82
2023/03/26 19:34:23;;;;;;;12.52;5.85;;;;;;;5.49;100.00;96892.91;3192138;23;20392;-82
2023/03/26 19:35:42;;;;;;;14.30;6.80;;;;;;;5.35;100.00;96894.19;3191481;23;20723;-83
2023/03/26 19:37:15;;;;;;;13.27;6.20;;;;;;;5.33;100.00;96890.81;3191525;23;20024;-83
2023/03/26 19:38:48;;;;;;;13.23;5.47;;;;;;;5.38;100.00;96888.06;3175721;23;20026;-83
2023/03/26 19:40:18;;;;;;;10.88;5.57;;;;;;;5.46;100.00;96880.03;3187114;23;20032;-83
2023/03/26 19:41:44;;;;;;;13.43;6.00;;;;;;;5.55;100.00;96884.94;3192229;23;20029;-83
2023/03/26 19:43:01;;;;;;;11.82;5.97;;;;;;;5.69;100.00;96881.88;3192428;23;20013;-82
2023/03/26 19:44:25;;;;;;;11.95;5.75;;;;;;;5.56;100.00;96885.78;3192959;23;20025;-82
2023/03/26 19:45:42;;;;;;;13.25;5.97;;;;;;;5.56;100.00;96880.56;3191483;23;20024;-82
2023/03/26 19:47:02;;;;;;;13.60;7.10;;;;;;;5.44;100.00;96872.28;3192270;23;20048;-82
2023/03/26 19:48:21;;;;;;;12.90;8.88;;;;;;;5.20;100.00;96876.53;3192768;23;20028;-83
2023/03/26 19:49:47;;;;;;;12.52;7.13;;;;;;;5.11;100.00;96879.44;3207368;23;20034;-82
2023/03/26 19:51:18;;;;;;;11.25;5.70;;;;;;;5.12;100.00;96883.72;3199437;23;20103;-83
2023/03/26 19:52:37;;;;;;;12.20;5.90;;;;;;;5.43;100.00;96880.97;3192553;23;20042;-83
2023/03/26 19:53:57;;;;;;;9.93;5.05;;;;;;;5.71;100.00;96874.03;3176154;23;20263;-83
2023/03/26 19:55:26;;;;;;;11.82;5.50;;;;;;;5.75;100.00;96891.19;3183936;23;20338;-83
2023/03/26 19:56:42;;;;;;;9.50;5.72;;;;;;;5.78;100.00;96884.16;3192532;23;20162;-83
2023/03/26 19:57:58;;;;;;;10.18;6.03;;;;;;;5.70;100.00;96883.56;3192219;23;20017;-83
2023/03/26 19:59:14;;;;;;;8.95;4.93;;;;;;;5.73;100.00;96878.28;3193005;23;20028;-82
2023/03/26 20:00:30;;;;;;;10.50;5.20;;;;;;;5.89;100.00;96881.19;3192583;23;20044;-83
2023/03/26 20:01:46;;;;;;;10.18;5.32;;;;;;;5.83;100.00;96875.34;3192383;23;20021;-83
2023/03/26 20:03:02;;;;;;;8.43;4.38;;;;;;;5.71;100.00;96882.66;3192241;23;20025;-83
2023/03/26 20:04:17;;;;;;;8.18;4.45;;;;;;;5.60;100.00;96883.03;3193173;23;20032;-83
2023/03/26 20:05:35;;;;;;;8.70;4.43;;;;;;;5.55;100.00;96884.94;3193201;23;20343;-83
2023/03/26 20:06:51;;;;;;;11.90;5.03;;;;;;;5.69;100.00;96887.06;3192304;23;20548;-84
2023/03/26 20:08:14;;;;;;;9.82;5.05;;;;;;;5.74;100.00;96885.19;3206917;23;20101;-82
2023/03/26 20:09:29;;;;;;;10.27;5.13;;;;;;;5.78;100.00;96876.38;3199964;23;20025;-83
2023/03/26 20:10:45;;;;;;;11.52;5.13;;;;;;;5.82;100.00;96873.66;3192827;23;20044;-83
2023/03/26 20:12:01;;;;;;;11.27;5.80;;;;;;;5.77;100.00;96874.69;3192678;23;20353;-82
2023/03/26 20:13:16;;;;;;;11.07;5.80;;;;;;;5.87;100.00;96874.38;3176563;23;20033;-82
2023/03/26 20:14:32;;;;;;;11.15;5.82;;;;;;;6.07;100.00;96882.34;3182845;23;20708;-83
2023/03/26 20:16:02;;;;;;;10.95;5.57;;;;;;;6.28;100.00;96877.25;3192550;23;20080;-83
2023/03/26 20:17:21;;;;;;;13.27;5.95;;;;;;;6.38;100.00;96880.41;3192517;23;20021;-82
2023/03/26 20:18:36;;;;;;;12.27;6.80;;;;;;;6.36;100.00;96877.84;3192802;23;20104;-82
2023/03/26 20:19:53;;;;;;;12.50;6.15;;;;;;;6.38;100.00;96875.19;3192682;23;20124;-82
2023/03/26 20:21:11;;;;;;;13.68;6.13;;;;;;;6.47;100.00;96879.22;3193064;23;20025;-82
2023/03/26 20:22:26;;;;;;;12.50;6.30;;;;;;;6.02;100.00;96873.88;3176374;23;20045;-83
2023/03/26 20:23:43;;;;;;;12.60;5.53;;;;;;;5.72;100.00;96868.78;3182948;23;20128;-83
2023/03/26 20:24:59;;;;;;;10.13;4.78;;;;;;;5.52;100.00;96866.88;3192435;23;20702;-82
2023/03/26 20:26:15;;;;;;;7.50;4.07;;;;;;;5.35;100.00;96860.47;3192916;23;20025;-82
2023/03/26 20:27:31;;;;;;;7.35;4.30;;;;;;;5.30;100.00;96862.38;3192490;23;20025;-82
2023/03/26 20:28:46;;;;;;;9.02;5.15;;;;;;;5.31;100.00;96869.25;3192985;23;20020;-83
2023/03/26 20:30:03;;;;;;;12.52;5.10;;;;;;;5.23;100.00;96866.91;3192759;23;20029;-83
2023/03/26 20:31:22;;;;;;;7.45;4.10;;;;;;;5.16;100.00;96857.59;3192394;23;20393;-82
2023/03/26 20:32:37;;;;;;;7.55;4.15;;;;;;;5.37;100.00;96863.84;3192505;23;20569;-83
2023/03/26 20:33:53;;;;;;;8.05;3.90;;;;;;;5.34;100.00;96868.31;3192697;23;20021;-83
2023/03/26 20:35:18;;;;;;;7.53;4.30;;;;;;;5.53;100.00;96862.50;3192463;23;20021;-83
2023/03/26 20:36:33;;;;;;;8.02;4.30;;;;;;;5.66;100.00;96866.41;3192707;23;20031;-82
2023/03/26 20:37:50;;;;;;;9.52;4.68;;;;;;;5.89;100.00;96865.59;3192558;23;20100;-82
2023/03/26 20:39:06;;;;;;;8.98;4.15;;;;;;;5.90;100.00;96874.25;3192722;23;20029;-82
2023/03/26 20:40:22;;;;;;;10.40;4.80;;;;;;;6.24;100.00;96864.47;3192454;23;20453;-83
2023/03/26 20:41:46;;;;;;;7.75;5.00;;;;;;;6.14;100.00;96871.72;3193514;23;20025;-82
2023/03/26 20:43:02;;;;;;;7.75;4.60;;;;;;;6.17;100.00;96862.06;3192578;23;20032;-82
2023/03/26 20:44:19;;;;;;;8.27;4.00;;;;;;;6.27;100.00;96867.78;3192591;23;20361;-82
2023/03/26 20:45:35;;;;;;;8.70;4.68;;;;;;;6.32;100.00;96863.28;3192417;23;20076;-82
2023/03/26 20:46:51;;;;;;;13.90;4.80;;;;;;;6.19;100.00;96864.63;3192938;23;20084;-81
2023/03/26 20:48:09;;;;;;;11.38;5.43;;;;;;;6.05;100.00;96863.34;3193232;23;20025;-82
2023/03/26 20:49:28;;;;;;;13.30;7.25;;;;;;;6.25;100.00;96853.16;3194743;23;20020;-82
2023/03/26 20:50:44;;;;;;;16.52;9.00;;;;;;;6.46;100.00;96849.75;3194962;23;20048;-82
2023/03/26 20:52:00;;;;;;;18.52;9.38;;;;;;;6.49;100.00;96854.00;3194128;23;20448;-82
2023/03/26 20:53:16;;;;;;;19.95;10.07;;;;;;;6.51;100.00;96849.59;3192784;23;20045;-84
2023/03/26 20:54:32;;;;;;;21.52;10.25;;;;;;;6.59;100.00;96851.91;3194380;23;20028;-83
2023/03/26 20:55:49;;;;;;;22.10;11.10;;;;;;;6.35;100.00;96846.69;3194192;23;20021;-83
2023/03/26 20:57:05;;;;;;;22.58;11.52;;;;;;;6.53;100.00;96845.16;3193966;23;20055;-85
2023/03/26 20:58:20;;;;;;;24.63;11.93;;;;;;;6.50;100.00;96847.91;3194367;23;20480;-82
2023/03/26 20:59:36;;;;;;;23.73;11.88;;;;;;;6.46;100.00;96847.16;3194121;23;20028;-82
2023/03/26 21:00:51;;;;;;;28.50;13.60;;;;;;;6.59;100.00;96851.91;3195158;23;20441;-82
2023/03/26 21:02:09;;;;;;;23.52;11.63;;;;;;;6.44;100.00;96846.38;3194179;23;20025;-82
2023/03/26 21:03:24;;;;;;;23.80;12.90;;;;;;;6.56;100.00;96857.22;3194177;23;20714;-82
2023/03/26 21:04:40;;;;;;;27.83;13.52;;;;;;;6.55;100.00;96848.56;3177719;23;20021;-82
2023/03/26 21:06:00;;;;;;;25.30;13.07;;;;;;;6.51;100.00;96844.38;3184249;23;20071;-82
2023/03/26 21:07:18;;;;;;;22.17;12.00;;;;;;;6.26;100.00;96845.28;3194081;23;20088;-84
2023/03/26 21:08:34;;;;;;;25.17;12.07;;;;;;;6.33;100.00;96845.91;3194360;23;20348;-82
2023/03/26 21:09:50;;;;;;;21.23;11.32;;;;;;;6.20;100.00;96845.53;3194055;23;20024;-84
2023/03/26 21:11:38;;;;;;;22.15;12.23;;;;;;;6.44;100.00;96842.94;3194290;23;20035;-84
2023/03/26 21:13:07;;;;;;;22.77;10.60;;;;;;;6.38;100.00;96844.00;3194060;23;20460;-84
2023/03/26 21:14:31;;;;;;;21.90;10.75;;;;;;;6.33;100.00;96849.38;3193823;23;20480;-84
2023/03/26 21:15:47;;;;;;;22.90;10.65;;;;;;;6.23;100.00;96848.00;3194908;23;20024;-84
2023/03/26 21:17:03;;;;;;;19.77;10.23;;;;;;;6.50;100.00;96843.56;3193395;23;20148;-84
2023/03/26 21:18:19;;;;;;;18.40;9.63;;;;;;;6.56;100.00;96844.22;3194111;23;20516;-84
2023/03/26 21:19:35;;;;;;;19.52;10.45;;;;;;;6.59;100.00;96833.69;3194276;23;20024;-84
2023/03/26 21:21:06;;;;;;;21.27;10.80;;;;;;;6.63;100.00;96830.94;3193631;23;20052;-85
2023/03/26 21:22:45;;;;;;;21.70;10.43;;;;;;;6.59;100.00;96834.56;3194319;23;20052;-81
2023/03/26 21:24:09;;;;;;;19.27;9.75;;;;;;;6.46;100.00;96833.31;3194356;23;20105;-82
2023/03/26 21:25:33;;;;;;;17.77;9.15;;;;;;;6.31;100.00;96840.78;3194022;23;20021;-82
2023/03/26 21:26:59;;;;;;;14.15;8.27;;;;;;;6.06;100.00;96828.69;3194309;23;20047;-82
2023/03/26 21:28:31;;;;;;;14.00;7.90;;;;;;;5.95;100.00;96833.38;3194089;23;20021;-82
2023/03/26 21:29:47;;;;;;;13.25;7.00;;;;;;;6.21;100.00;96829.03;3195093;23;20024;-83
2023/03/26 21:31:04;;;;;;;16.13;7.82;;;;;;;6.27;100.00;96826.19;3193963;23;20085;-82
2023/03/26 21:32:21;;;;;;;18.40;8.48;;;;;;;6.32;100.00;96839.88;3193859;23;20021;-82
2023/03/26 21:33:37;;;;;;;12.95;7.93;;;;;;;6.41;100.00;96833.50;3193971;23;20495;-82
2023/03/26 21:34:54;;;;;;;14.55;8.68;;;;;;;6.50;100.00;96832.28;3194118;23;20468;-84
2023/03/26 21:36:10;;;;;;;17.08;9.48;;;;;;;6.53;100.00;96829.56;3194132;23;20100;-84
2023/03/26 21:37:26;;;;;;;16.23;8.55;;;;;;;6.54;100.00;96833.03;3195020;23;20032;-84
2023/03/26 21:38:43;;;;;;;16.48;8.48;;;;;;;6.46;100.00;96831.56;3194244;23;20040;-82
2023/03/26 21:40:06;;;;;;;18.10;8.85;;;;;;;6.35;100.00;96824.16;3194791;23;20389;-83
2023/03/26 21:41:22;;;;;;;18.23;8.50;;;;;;;6.42;100.00;96822.19;3194005;23;20018;-84
2023/03/26 21:42:38;;;;;;;14.55;8.15;;;;;;;6.43;100.00;96826.47;3194005;23;20031;-84
2023/03/26 21:43:54;;;;;;;13.65;7.45;;;;;;;6.30;100.00;96826.09;3193852;23;20021;-84
2023/03/26 21:45:11;;;;;;;15.02;9.32;;;;;;;6.28;100.00;96817.50;3194013;23;20028;-81
2023/03/26 21:46:27;;;;;;;13.50;8.30;;;;;;;6.19;100.00;96817.84;3193887;23;20072;-84
2023/03/26 21:47:43;;;;;;;19.23;8.57;;;;;;;6.30;100.00;96815.72;3193406;23;20052;-83
2023/03/26 21:48:59;;;;;;;16.35;7.70;;;;;;;6.32;100.00;96816.50;3177745;23;20021;-83
2023/03/26 21:50:21;;;;;;;15.25;8.65;;;;;;;6.44;100.00;96817.78;3183793;23;20607;-84
2023/03/26 21:51:36;;;;;;;17.52;9.45;;;;;;;6.48;100.00;96813.31;3193844;23;20023;-83
2023/03/26 21:52:52;;;;;;;15.82;9.15;;;;;;;6.45;100.00;96818.63;3193866;23;20025;-83
2023/03/26 21:54:29;;;;;;;14.73;8.35;;;;;;;6.05;100.00;96813.13;3193822;23;20032;-83
2023/03/26 21:56:02;;;;;;;14.95;8.68;;;;;;;6.18;100.00;96811.78;3193755;23;20539;-83
2023/03/26 21:57:35;;;;;;;20.10;9.15;;;;;;;6.10;100.00;96808.63;3193797;23;20021;-83
2023/03/26 21:59:12;;;;;;;14.82;8.25;;;;;;;6.15;100.00;96811.91;3177680;23;20017;-83
2023/03/26 22:00:58;;;;;;;17.90;9.38;;;;;;;6.23;100.00;96814.22;3188406;23;20482;-83
2023/03/26 22:02:38;;;;;;;16.63;9.38;;;;;;;5.94;100.00;96811.75;3147759;23;20054;-83
2023/03/26 22:04:05;;;;;;;15.77;8.52;;;;;;;6.08;100.00;96811.28;3193944;23;20364;-83
2023/03/26 22:05:49;;;;;;;16.15;7.80;;;;;;;5.97;100.00;96807.34;3192600;23;20028;-83
2023/03/26 22:07:17;;;;;;;14.68;7.60;;;;;;;5.77;100.00;96801.97;3193409;23;20025;-83
2023/03/26 22:08:40;;;;;;;17.45;8.95;;;;;;;5.80;100.00;96799.25;3193860;23;20036;-83
2023/03/26 22:09:56;;;;;;;14.98;7.70;;;;;;;5.63;100.00;96801.59;3194036;23;20487;-83
2023/03/26 22:11:11;;;;;;;14.32;7.47;;;;;;;5.45;100.00;96796.16;3192672;23;20025;-83
2023/03/26 22:12:27;;;;;;;16.95;7.20;;;;;;;5.43;100.00;96797.09;3192673;23;20104;-83
2023/03/26 22:13:43;;;;;;;12.50;7.20;;;;;;;5.27;100.00;96799.34;3192434;23;20475;-83
2023/03/26 22:15:00;;;;;;;15.30;7.90;;;;;;;5.05;100.00;96790.50;3192206;23;20020;-83
2023/03/26 22:16:16;;;;;;;19.65;8.30;;;;;;;5.40;100.00;96787.66;3192630;23;20431;-83
2023/03/26 22:17:32;;;;;;;15.15;7.28;;;;;;;5.54;100.00;96794.13;3192478;23;20021;-83
2023/03/26 22:18:47;;;;;;;17.70;7.95;;;;;;;5.45;100.00;96796.16;3191461;23;20092;-83
2023/03/26 22:20:06;;;;;;;18.65;8.85;;;;;;;5.47;100.00;96791.75;3191669;23;20031;-83
2023/03/26 22:21:22;;;;;;;15.95;7.63;;;;;;;5.62;100.00;96794.72;3192372;23;20048;-83
2023/03/26 22:22:40;;;;;;;18.40;7.85;;;;;;;5.55;100.00;96801.00;3192212;23;20024;-83
2023/03/26 22:23:56;;;;;;;19.95;7.97;;;;;;;5.54;100.00;96791.53;3192503;23;20069;-82
2023/03/26 22:25:11;;;;;;;16.02;7.80;;;;;;;5.60;100.00;96796.53;3175816;23;20056;-83
2023/03/26 22:26:27;;;;;;;23.10;10.23;;;;;;;5.53;100.00;96792.41;3182717;23;20021;-83
2023/03/26 22:27:46;;;;;;;22.17;11.77;;;;;;;5.67;100.00;96797.16;3191956;23;20021;-83
2023/03/26 22:29:02;;;;;;;21.42;11.20;;;;;;;5.75;100.00;96798.56;3192396;23;20025;-83
2023/03/26 22:30:22;;;;;;;30.85;11.82;;;;;;;5.50;100.00;96796.81;3192201;23;20392;-83
2023/03/26 22:31:38;;;;;;;41.88;13.93;;;;;;;5.32;100.00;96790.50;3192516;23;20124;-83
2023/03/26 22:32:54;;;;;;;24.83;11.98;;;;;;;5.14;100.00;96802.34;3192405;23;20483;-83
2023/03/26 22:34:10;;;;;;;28.15;12.35;;;;;;;5.28;100.00;96798.44;3192152;23;20134;-83
2023/03/26 22:35:26;;;;;;;25.75;12.25;;;;;;;5.32;100.00;96803.47;3192276;23;20877;-83
2023/03/26 22:36:42;;;;;;;32.83;12.68;;;;;;;5.34;100.00;96808.63;3192346;23;20028;-83
2023/03/26 22:37:57;;;;;;;56.40;13.15;;;;;;;5.35;100.00;96803.38;3180405;23;20087;-83
2023/03/26 22:39:13;;;;;;;68.38;13.95;;;;;;;5.47;100.00;96803.84;3192754;23;20025;-83
2023/03/26 22:40:28;;;;;;;40.78;11.80;;;;;;;5.35;100.00;96805.13;3192196;23;20025;-83
2023/03/26 22:41:44;;;;;;;22.42;11.07;;;;;;;5.43;100.00;96808.31;3192325;23;20025;-83
2023/03/26 22:43:00;;;;;;;21.38;9.45;;;;;;;5.47;100.00;96803.84;3192479;23;20796;-84
2023/03/26 22:44:16;;;;;;;18.20;8.57;;;;;;;5.45;100.00;96805.66;3192436;23;20056;-82
2023/03/26 22:45:31;;;;;;;15.15;8.18;;;;;;;5.50;100.00;96811.53;3180000;23;21079;-83
2023/03/26 22:46:51;;;;;;;15.63;7.93;;;;;;;5.40;100.00;96808.41;3192732;23;20021;-83
2023/03/26 22:48:07;;;;;;;26.40;8.80;;;;;;;5.49;100.00;96813.31;3197218;23;20029;-82
2023/03/26 22:49:26;;;;;;;30.15;8.88;;;;;;;5.55;100.00;96812.25;3207869;23;20131;-83
2023/03/26 22:50:42;;;;;;;17.95;8.10;;;;;;;5.52;100.00;96814.94;3207776;23;20040;-82
2023/03/26 22:51:57;;;;;;;16.67;7.88;;;;;;;5.63;100.00;96811.97;3207856;23;20100;-83
2023/03/26 22:53:13;;;;;;;13.40;7.35;;;;;;;5.61;100.00;96813.78;3207739;23;20052;-84
2023/03/26 22:54:29;;;;;;;16.10;7.32;;;;;;;5.62;100.00;96812.88;3207838;23;20025;-83
2023/03/26 22:55:44;;;;;;;17.80;7.68;;;;;;;5.59;100.00;96813.81;3207531;23;20052;-83
2023/03/26 22:57:00;;;;;;;17.25;7.40;;;;;;;5.60;100.00;96809.50;3207791;23;20012;-83
2023/03/26 22:58:16;;;;;;;18.15;8.30;;;;;;;5.68;100.00;96817.84;3208389;23;20020;-83